Time;durP1;ratioP1;P1;durP2;ratioP2;P2;SDS_P1;SDS_P2;PMS_P1;PMS_P2;Temp;Humidity;BMP_temperature;BMP_pressure;BME280_temperature;BME280_humidity;BME280_pressure;Samples;Min_cycle;Max_cycle;Signal;HPM_P1;HPM_P2
2023/02/27 00:02:08;;;;;;;7.75;4.60;;;;;;;-1.06;58.41;99015.84;5053313;28;20041;-64
2023/02/27 00:04:34;;;;;;;6.20;4.18;;;;;;;-1.04;58.18;99013.16;5053481;28;20037;-63
2023/02/27 00:06:59;;;;;;;6.30;4.53;;;;;;;-0.98;58.28;99025.13;5049936;28;20100;-63
2023/02/27 00:09:24;;;;;;;6.47;4.10;;;;;;;-1.04;58.55;99021.03;5032058;28;20444;-63
2023/02/27 00:11:50;;;;;;;7.70;4.13;;;;;;;-1.11;58.54;99030.09;5031752;28;20033;-63
2023/02/27 00:14:15;;;;;;;6.75;4.18;;;;;;;-1.15;58.17;99024.16;5033249;28;20091;-65
2023/02/27 00:16:41;;;;;;;6.30;4.10;;;;;;;-1.10;58.38;99053.69;5033420;28;20109;-65
2023/02/27 00:19:06;;;;;;;7.65;4.50;;;;;;;-1.13;58.35;99042.44;5033240;28;20059;-63
2023/02/27 00:21:32;;;;;;;6.95;4.32;;;;;;;-1.17;58.83;99052.28;5031787;28;20079;-64
2023/02/27 00:23:57;;;;;;;6.43;4.25;;;;;;;-1.14;58.45;99060.00;5032192;28;20124;-64
2023/02/27 00:26:23;;;;;;;5.40;4.00;;;;;;;-1.06;58.34;99055.25;5032788;28;20100;-64
2023/02/27 00:28:48;;;;;;;5.82;3.97;;;;;;;-1.06;58.33;99060.50;5052077;28;20380;-65
2023/02/27 00:31:14;;;;;;;8.35;3.90;;;;;;;-1.08;57.80;99051.00;5052534;28;20040;-68
2023/02/27 00:33:39;;;;;;;5.07;3.67;;;;;;;-1.25;58.24;99036.84;5052551;28;20474;-65
2023/02/27 00:36:05;;;;;;;6.53;4.18;;;;;;;-1.05;57.98;99071.88;5052363;28;20037;-64
2023/02/27 00:38:31;;;;;;;6.43;3.97;;;;;;;-1.06;57.41;99068.38;5052637;28;20055;-65
2023/02/27 00:40:57;;;;;;;6.05;4.00;;;;;;;-1.06;57.65;99064.94;5052185;28;20107;-67
2023/02/27 00:43:23;;;;;;;5.47;4.00;;;;;;;-1.07;57.68;99076.34;5050525;28;20478;-65
2023/02/27 00:45:48;;;;;;;6.75;4.05;;;;;;;-1.05;57.12;99082.38;5051583;28;20037;-65
2023/02/27 00:48:14;;;;;;;5.28;3.72;;;;;;;-1.09;58.01;99091.31;5035526;28;20029;-64
2023/02/27 00:50:40;;;;;;;5.28;3.22;;;;;;;-1.04;57.12;99076.22;5032901;28;20095;-64
2023/02/27 00:53:05;;;;;;;5.85;3.90;;;;;;;-1.13;57.23;99081.84;5032215;28;20388;-64
2023/02/27 00:55:31;;;;;;;4.43;3.60;;;;;;;-1.41;57.24;99054.19;5031265;28;20120;-64
2023/02/27 00:57:56;;;;;;;5.65;3.55;;;;;;;-1.45;56.97;99063.97;5032567;28;20068;-63
2023/02/27 01:00:22;;;;;;;5.00;3.47;;;;;;;-1.26;57.43;99097.31;5032239;28;20040;-64
2023/02/27 01:02:48;;;;;;;5.78;3.90;;;;;;;-1.21;56.90;99097.94;5032176;28;20510;-65
2023/02/27 01:05:14;;;;;;;6.13;3.92;;;;;;;-1.28;56.79;99118.41;5015845;28;20040;-64
2023/02/27 01:07:39;;;;;;;6.03;3.95;;;;;;;-1.43;57.04;99088.41;5045222;28;20474;-64
2023/02/27 01:10:07;;;;;;;5.78;3.75;;;;;;;-1.36;57.18;99100.34;5051868;28;20061;-64
2023/02/27 01:12:33;;;;;;;6.65;4.18;;;;;;;-1.28;56.85;99118.41;5052440;28;20040;-64
2023/02/27 01:14:58;;;;;;;5.45;3.75;;;;;;;-1.31;56.73;99114.13;5051372;28;20037;-64
2023/02/27 01:17:23;;;;;;;4.53;3.53;;;;;;;-1.24;57.09;99119.09;5051082;28;20435;-64
2023/02/27 01:19:49;;;;;;;4.70;3.58;;;;;;;-1.23;56.31;99126.06;5051404;28;20033;-65
2023/02/27 01:22:14;;;;;;;5.95;3.95;;;;;;;-1.24;56.14;99124.34;5052825;28;20363;-64
2023/02/27 01:24:40;;;;;;;5.63;3.67;;;;;;;-1.40;56.50;99108.41;5051081;28;20056;-66
2023/02/27 01:27:05;;;;;;;7.50;4.25;;;;;;;-1.37;56.22;99137.16;5041714;28;20829;-65
2023/02/27 01:29:31;;;;;;;5.57;4.10;;;;;;;-1.44;57.08;99133.97;5034863;28;20040;-64
2023/02/27 01:31:56;;;;;;;5.57;4.00;;;;;;;-1.43;57.14;99134.81;5046609;28;20037;-63
2023/02/27 01:34:22;;;;;;;5.95;4.10;;;;;;;-1.39;57.10;99141.63;5054586;28;20045;-64
2023/02/27 01:36:47;;;;;;;6.88;4.32;;;;;;;-1.38;57.08;99145.97;5054943;28;20099;-67
2023/02/27 01:39:13;;;;;;;6.18;4.10;;;;;;;-1.38;56.98;99149.47;5056405;28;20094;-64
2023/02/27 01:41:39;;;;;;;5.68;4.00;;;;;;;-1.39;57.15;99142.50;5056268;28;20144;-65
2023/02/27 01:44:07;;;;;;;6.80;4.05;;;;;;;-1.43;56.86;99153.19;5055645;28;20033;-64
2023/02/27 01:46:33;;;;;;;5.75;3.97;;;;;;;-1.44;56.60;99152.34;5048066;28;20046;-64
2023/02/27 01:49:07;;;;;;;6.65;4.45;;;;;;;-1.47;57.30;99162.94;5036858;28;20086;-65
2023/02/27 01:51:37;;;;;;;8.27;4.68;;;;;;;-1.59;57.47;99146.81;5036388;28;20034;-65
2023/02/27 01:54:06;;;;;;;6.47;4.18;;;;;;;-1.51;57.24;99183.25;5035698;28;20029;-64
2023/02/27 01:56:31;;;;;;;7.25;4.60;;;;;;;-1.52;57.10;99172.78;5045076;28;20067;-66
2023/02/27 01:59:02;;;;;;;6.05;4.30;;;;;;;-1.57;57.57;99193.97;5051989;28;20179;-65
2023/02/27 02:01:29;;;;;;;7.40;4.43;;;;;;;-1.51;57.61;99191.13;5056169;28;20033;-66
2023/02/27 02:04:05;;;;;;;6.40;4.68;;;;;;;-1.47;57.85;99204.97;5055569;28;20041;-65
2023/02/27 02:06:35;;;;;;;7.72;4.60;;;;;;;-1.45;57.50;99211.88;5049018;28;20057;-64
2023/02/27 02:09:01;;;;;;;7.97;4.68;;;;;;;-1.49;57.47;99214.69;5035548;28;20080;-65
2023/02/27 02:11:27;;;;;;;6.53;4.32;;;;;;;-1.54;57.71;99207.00;5036041;28;20037;-66
2023/02/27 02:13:57;;;;;;;9.50;4.97;;;;;;;-1.46;57.48;99220.66;5035337;28;20041;-64
2023/02/27 02:16:40;;;;;;;7.70;5.03;;;;;;;-1.43;58.06;99237.22;5035336;28;20467;-64
2023/02/27 02:19:43;;;;;;;7.85;4.53;;;;;;;-1.20;57.32;99246.78;5047821;28;20037;-64
2023/02/27 02:22:17;;;;;;;8.65;4.93;;;;;;;-1.46;57.29;99240.81;5037622;28;20040;-66
2023/02/27 02:25:01;;;;;;;8.13;4.68;;;;;;;-1.56;57.64;99250.84;5035245;28;20069;-65
2023/02/27 02:28:00;;;;;;;6.80;5.25;;;;;;;-1.46;57.45;99256.56;5035057;28;20111;-65
2023/02/27 02:30:34;;;;;;;7.68;4.97;;;;;;;-1.51;58.18;99263.78;5035992;28;20037;-64
2023/02/27 02:33:02;;;;;;;7.00;4.57;;;;;;;-1.53;57.73;99265.59;5035017;28;20471;-64
2023/02/27 02:35:46;;;;;;;7.32;4.85;;;;;;;-1.54;58.19;99264.78;5034799;28;20037;-65
2023/02/27 02:38:21;;;;;;;7.75;5.28;;;;;;;-1.47;58.05;99266.22;5035257;28;20095;-64
2023/02/27 02:41:03;;;;;;;7.68;4.82;;;;;;;-1.39;57.13;99273.78;5035084;28;20384;-65
2023/02/27 02:43:37;;;;;;;8.73;5.13;;;;;;;-1.66;57.15;99225.88;5033900;28;20120;-63
2023/02/27 02:46:29;;;;;;;7.78;4.88;;;;;;;-1.69;58.13;99255.69;5035230;28;20172;-64
2023/02/27 02:49:04;;;;;;;7.03;4.82;;;;;;;-1.50;57.96;99281.22;5042984;28;20055;-66
2023/02/27 02:52:02;;;;;;;7.72;4.75;;;;;;;-1.44;57.84;99275.75;5053725;28;20029;-65
2023/02/27 02:54:39;;;;;;;6.97;4.63;;;;;;;-1.49;57.67;99303.94;5049333;28;20456;-63
2023/02/27 02:57:18;;;;;;;7.63;4.75;;;;;;;-1.54;57.91;99304.16;5034444;28;20056;-64
2023/02/27 02:59:53;;;;;;;8.10;4.78;;;;;;;-1.59;57.92;99306.94;5034728;28;20056;-65
2023/02/27 03:02:24;;;;;;;7.93;4.82;;;;;;;-1.43;57.32;99308.97;5034775;28;20044;-64
2023/02/27 03:04:56;;;;;;;7.32;4.45;;;;;;;-1.42;57.15;99325.56;5034587;28;20072;-65
2023/02/27 03:07:30;;;;;;;7.00;5.05;;;;;;;-1.73;58.45;99303.97;5033875;28;20036;-63
2023/02/27 03:10:14;;;;;;;8.57;5.45;;;;;;;-1.68;57.95;99325.69;5053380;28;20033;-65
2023/02/27 03:12:48;;;;;;;8.80;5.15;;;;;;;-1.69;57.74;99334.44;5053692;28;20398;-64
2023/02/27 03:15:20;;;;;;;8.85;4.78;;;;;;;-1.63;58.23;99341.25;5054176;28;20068;-64
2023/02/27 03:18:09;;;;;;;8.85;5.32;;;;;;;-1.63;58.39;99349.13;5051717;28;20029;-64
2023/02/27 03:20:46;;;;;;;7.93;5.32;;;;;;;-1.57;57.79;99348.03;5032892;28;20483;-65
2023/02/27 03:23:16;;;;;;;8.95;5.25;;;;;;;-1.59;58.27;99350.69;5034001;28;20095;-65
2023/02/27 03:25:45;;;;;;;7.60;4.70;;;;;;;-1.59;58.27;99351.56;5033606;28;20108;-64
2023/02/27 03:28:16;;;;;;;7.05;4.68;;;;;;;-1.61;57.97;99358.66;5040105;28;20364;-63
2023/02/27 03:31:07;;;;;;;6.40;4.70;;;;;;;-1.64;58.27;99337.78;5053916;28;20049;-64
2023/02/27 03:33:48;;;;;;;9.23;5.47;;;;;;;-1.64;58.50;99357.91;5036485;28;20037;-64
2023/02/27 03:36:41;;;;;;;8.48;4.95;;;;;;;-1.68;58.60;99365.06;5054342;28;20049;-64
2023/02/27 03:39:42;;;;;;;7.30;4.85;;;;;;;-1.62;58.82;99375.31;5053940;28;20052;-65
2023/02/27 03:42:31;;;;;;;7.50;5.07;;;;;;;-1.62;58.36;99375.31;5053277;28;20120;-66
2023/02/27 03:45:07;;;;;;;7.00;4.55;;;;;;;-1.57;58.02;99380.38;5033835;28;20068;-64
2023/02/27 03:47:33;;;;;;;7.90;4.88;;;;;;;-1.60;58.34;99388.38;5036790;28;20033;-65
2023/02/27 03:49:59;;;;;;;7.68;4.88;;;;;;;-1.66;58.52;99393.84;5053522;28;20036;-63
2023/02/27 03:52:27;;;;;;;7.35;5.13;;;;;;;-1.68;58.78;99409.69;5052942;28;20033;-68
2023/02/27 03:54:59;;;;;;;8.85;5.03;;;;;;;-1.65;58.83;99409.56;5054176;28;20021;-65
2023/02/27 03:57:25;;;;;;;10.10;5.40;;;;;;;-1.69;58.70;99418.44;5054056;28;20029;-64
2023/02/27 03:59:52;;;;;;;8.27;5.15;;;;;;;-1.68;58.60;99417.56;5053590;28;20098;-64
2023/02/27 04:02:18;;;;;;;8.57;5.63;;;;;;;-1.69;58.52;99415.81;5051442;28;20174;-64
2023/02/27 04:04:44;;;;;;;7.88;5.55;;;;;;;-1.62;58.12;99437.47;5053370;28;20044;-65
2023/02/27 04:07:40;;;;;;;9.20;5.60;;;;;;;-1.57;58.65;99438.13;5050711;28;20025;-66
2023/02/27 04:10:27;;;;;;;7.43;5.50;;;;;;;-1.63;58.54;99435.75;5033122;28;20045;-64
2023/02/27 04:13:17;;;;;;;9.50;5.30;;;;;;;-1.64;58.55;99453.28;5033399;28;20087;-65
2023/02/27 04:15:45;;;;;;;9.10;5.63;;;;;;;-1.67;59.07;99444.66;5032682;28;20029;-64
2023/02/27 04:18:22;;;;;;;8.77;5.28;;;;;;;-1.68;58.82;99450.81;5032794;28;20355;-64
2023/02/27 04:20:56;;;;;;;7.38;5.15;;;;;;;-1.65;58.76;99448.94;5033124;28;20135;-65
2023/02/27 04:23:30;;;;;;;9.23;5.15;;;;;;;-1.67;58.65;99452.53;5030670;28;20032;-66
2023/02/27 04:26:19;;;;;;;10.05;6.20;;;;;;;-1.62;58.70;99450.59;5033113;28;20095;-66
2023/02/27 04:29:06;;;;;;;9.50;5.82;;;;;;;-1.55;59.33;99462.59;5040039;28;20066;-64
2023/02/27 04:31:44;;;;;;;8.73;5.18;;;;;;;-1.63;59.09;99470.75;5045243;28;20035;-64
2023/02/27 04:34:42;;;;;;;8.63;5.57;;;;;;;-1.65;59.36;99476.94;5052153;28;20102;-65
2023/02/27 04:37:14;;;;;;;10.75;5.55;;;;;;;-1.75;58.80;99476.41;5049680;28;20457;-65
2023/02/27 04:39:50;;;;;;;9.80;6.18;;;;;;;-1.75;59.42;99482.53;5052601;28;20047;-66
2023/02/27 04:42:20;;;;;;;9.38;5.80;;;;;;;-1.76;59.24;99486.06;5051603;28;20090;-65
2023/02/27 04:44:49;;;;;;;9.10;5.93;;;;;;;-1.75;59.84;99497.41;5052444;28;20052;-66
2023/02/27 04:47:16;;;;;;;7.80;5.20;;;;;;;-1.76;59.32;99491.31;5032611;28;20033;-65
2023/02/27 04:50:00;;;;;;;8.82;5.70;;;;;;;-1.82;59.38;99465.28;5040865;28;20067;-66
2023/02/27 04:52:39;;;;;;;8.05;5.40;;;;;;;-1.54;58.95;99511.56;5039884;28;20455;-65
2023/02/27 04:55:16;;;;;;;9.15;5.60;;;;;;;-1.58;59.45;99512.56;5049511;28;20029;-66
2023/02/27 04:57:50;;;;;;;7.75;5.00;;;;;;;-1.56;58.88;99515.16;5052210;28;20032;-65
2023/02/27 05:00:19;;;;;;;9.15;5.55;;;;;;;-1.59;58.78;99518.72;5052019;28;20033;-66
2023/02/27 05:02:50;;;;;;;9.88;5.82;;;;;;;-1.60;59.23;99524.88;5048155;28;20028;-66
2023/02/27 05:05:21;;;;;;;9.20;5.80;;;;;;;-1.57;58.65;99527.41;5042063;28;20033;-65
2023/02/27 05:07:56;;;;;;;10.65;6.43;;;;;;;-1.53;59.68;99533.41;5039685;28;20347;-55
2023/02/27 05:10:43;;;;;;;10.38;6.13;;;;;;;-1.53;59.23;99528.16;5041058;28;20127;-66
2023/02/27 05:13:19;;;;;;;9.35;5.88;;;;;;;-1.53;58.83;99515.91;5038748;28;20033;-65
2023/02/27 05:16:16;;;;;;;8.90;5.70;;;;;;;-1.56;59.48;99534.41;5032220;28;20037;-66
2023/02/27 05:18:42;;;;;;;8.82;5.65;;;;;;;-1.55;59.22;99520.34;5033385;28;20037;-67
2023/02/27 05:21:31;;;;;;;9.38;5.45;;;;;;;-1.42;59.01;99528.66;5041497;28;20362;-66
2023/02/27 05:24:27;;;;;;;10.52;5.70;;;;;;;-1.35;58.69;99538.00;5041011;28;20036;-65
2023/02/27 05:26:55;;;;;;;;;;;;;;;-1.23;58.61;99541.09;5042024;28;20053;-67
2023/02/27 05:29:35;;;;;;;9.70;5.97;;;;;;;-1.43;58.78;99536.56;5041894;28;20406;-66
2023/02/27 05:32:32;;;;;;;11.48;6.13;;;;;;;-1.44;58.92;99548.84;5031710;28;20034;-69
2023/02/27 05:35:08;;;;;;;9.07;6.07;;;;;;;-1.46;58.73;99551.53;5032101;28;20045;-66
2023/02/27 05:38:00;;;;;;;10.40;6.03;;;;;;;-1.47;58.98;99548.94;5031618;28;20167;-66
2023/02/27 05:40:32;;;;;;;10.00;5.95;;;;;;;-1.40;58.59;99558.34;5031572;28;20120;-66
2023/02/27 05:43:04;;;;;;;10.88;6.63;;;;;;;-1.37;58.28;99566.09;5032212;28;20044;-65
2023/02/27 05:45:33;;;;;;;10.25;6.53;;;;;;;-1.43;59.14;99568.06;5047123;28;20063;-66
2023/02/27 05:48:06;;;;;;;9.65;6.35;;;;;;;-1.38;59.25;99567.00;5039406;28;20033;-66
2023/02/27 05:50:34;;;;;;;10.15;6.40;;;;;;;-1.35;58.47;99579.16;5040911;28;20056;-70
2023/02/27 05:53:03;;;;;;;9.45;6.10;;;;;;;-1.39;58.99;99573.19;5041137;28;20090;-67
2023/02/27 05:55:36;;;;;;;8.07;5.43;;;;;;;-1.25;58.80;99584.94;5050401;28;20033;-66
2023/02/27 05:58:23;;;;;;;9.10;5.85;;;;;;;-1.28;58.25;99592.94;5050415;28;20029;-69
2023/02/27 06:01:00;;;;;;;11.57;6.20;;;;;;;-1.31;58.64;99602.66;5051989;28;20044;-66
2023/02/27 06:03:28;;;;;;;9.57;5.65;;;;;;;-1.27;58.50;99585.03;5049744;28;20093;-65
2023/02/27 06:05:56;;;;;;;8.90;5.85;;;;;;;-1.20;58.10;99604.06;5051827;28;20112;-65
2023/02/27 06:08:21;;;;;;;12.18;6.22;;;;;;;-1.22;58.66;99605.84;5049867;28;20025;-67
2023/02/27 06:10:48;;;;;;;11.38;5.93;;;;;;;-1.19;58.82;99611.03;5032030;28;20045;-66
2023/02/27 06:13:16;;;;;;;9.27;6.10;;;;;;;-1.16;58.40;99610.91;5031681;28;20441;-66
2023/02/27 06:15:44;;;;;;;11.10;6.28;;;;;;;-1.14;58.22;99619.59;5044731;28;20037;-66
2023/02/27 06:18:11;;;;;;;9.60;6.03;;;;;;;-1.18;58.41;99602.22;5034020;28;20072;-66
2023/02/27 06:20:37;;;;;;;9.45;6.43;;;;;;;-1.11;58.67;99608.97;5034930;28;20037;-66
2023/02/27 06:23:03;;;;;;;9.30;5.60;;;;;;;-1.05;58.29;99619.25;5036431;28;20029;-65
2023/02/27 06:25:28;;;;;;;8.60;5.90;;;;;;;-1.05;57.81;99619.25;5035315;28;20468;-66
2023/02/27 06:27:54;;;;;;;9.57;5.75;;;;;;;-1.01;58.21;99628.72;5050487;28;20029;-66
2023/02/27 06:30:19;;;;;;;8.15;5.78;;;;;;;-0.97;57.67;99616.34;5054099;28;20029;-66
2023/02/27 06:32:45;;;;;;;9.50;6.32;;;;;;;-0.94;57.67;99625.91;5054936;28;20072;-67
2023/02/27 06:35:11;;;;;;;11.30;5.85;;;;;;;-0.97;57.66;99626.00;5036253;28;20030;-64
2023/02/27 06:37:37;;;;;;;9.40;5.55;;;;;;;-1.16;57.39;99608.28;5034897;28;20041;-70
2023/02/27 06:40:04;;;;;;;9.15;5.80;;;;;;;-1.03;57.46;99627.09;5017825;28;20042;-68
2023/02/27 06:42:31;;;;;;;8.15;5.65;;;;;;;-1.01;57.80;99636.63;5034388;28;20034;-66
2023/02/27 06:44:57;;;;;;;7.85;5.15;;;;;;;-0.96;57.27;99635.63;5034795;28;20166;-66
2023/02/27 06:47:22;;;;;;;10.93;6.30;;;;;;;-0.96;57.46;99636.47;5034709;28;20115;-68
2023/02/27 06:49:48;;;;;;;10.02;6.18;;;;;;;-1.12;57.58;99609.00;5034967;28;20037;-65
2023/02/27 06:52:13;;;;;;;8.85;5.93;;;;;;;-0.92;57.85;99642.47;5034683;28;20033;-65
2023/02/27 06:54:39;;;;;;;10.50;6.07;;;;;;;-0.89;57.44;99644.97;5040779;28;20028;-67
2023/02/27 06:57:05;;;;;;;11.07;6.22;;;;;;;-0.85;57.44;99661.47;5044861;28;20351;-67
2023/02/27 06:59:30;;;;;;;9.93;5.50;;;;;;;-0.78;57.96;99663.00;5037152;28;20443;-66
2023/02/27 07:01:57;;;;;;;8.52;5.47;;;;;;;-0.79;57.24;99658.66;5043121;28;20040;-65
2023/02/27 07:04:23;;;;;;;9.40;5.60;;;;;;;-0.93;57.46;99640.75;5028387;28;20106;-66
2023/02/27 07:06:49;;;;;;;7.75;4.95;;;;;;;-0.75;57.16;99671.59;5053614;28;20036;-63
2023/02/27 07:09:14;;;;;;;9.20;5.78;;;;;;;-0.77;57.26;99676.06;5054247;28;20037;-65
2023/02/27 07:11:40;;;;;;;9.35;5.95;;;;;;;-0.75;57.17;99678.66;5053963;28;20033;-65
2023/02/27 07:14:05;;;;;;;11.38;5.15;;;;;;;-0.73;57.13;99677.66;5047017;28;20064;-68
2023/02/27 07:16:31;;;;;;;7.60;5.47;;;;;;;-0.73;56.97;99677.66;5039972;28;20033;-66
2023/02/27 07:18:56;;;;;;;11.40;5.82;;;;;;;-0.77;56.73;99683.13;5053864;28;20033;-65
2023/02/27 07:21:22;;;;;;;7.20;5.13;;;;;;;-0.76;57.85;99677.78;5053002;28;20061;-66
2023/02/27 07:23:47;;;;;;;9.02;6.10;;;;;;;-0.78;57.19;99676.13;5053743;28;20037;-67
2023/02/27 07:26:12;;;;;;;9.77;5.75;;;;;;;-0.70;58.08;99681.13;5053193;28;20025;-66
2023/02/27 07:28:38;;;;;;;9.90;5.70;;;;;;;-0.59;57.52;99684.22;5053434;28;20037;-67
2023/02/27 07:31:03;;;;;;;9.30;5.35;;;;;;;-0.56;57.01;99688.50;5052203;28;20108;-65
2023/02/27 07:33:31;;;;;;;7.93;5.38;;;;;;;-0.51;56.84;99699.72;5035206;28;20134;-63
2023/02/27 07:35:56;;;;;;;7.95;5.05;;;;;;;-0.47;56.85;99710.06;5041024;28;20785;-67
2023/02/27 07:38:22;;;;;;;7.50;5.25;;;;;;;-0.46;56.93;99716.16;5033275;28;20124;-65
2023/02/27 07:40:48;;;;;;;8.05;5.07;;;;;;;-0.44;56.36;99709.94;5048732;28;20131;-66
2023/02/27 07:43:14;;;;;;;9.13;5.43;;;;;;;-0.39;56.32;99703.66;5051859;28;20129;-66
2023/02/27 07:45:39;;;;;;;7.55;5.32;;;;;;;-0.38;56.63;99726.41;5050782;28;20096;-67
2023/02/27 07:48:05;;;;;;;9.57;5.07;;;;;;;-0.53;56.91;99694.50;5034791;28;20026;-67
2023/02/27 07:50:31;;;;;;;7.78;4.90;;;;;;;-0.27;56.72;99716.34;5033614;28;20048;-66
2023/02/27 07:52:56;;;;;;;8.43;4.95;;;;;;;-0.25;56.15;99708.41;5044576;28;20308;-66
2023/02/27 07:55:21;;;;;;;7.68;4.97;;;;;;;-0.26;55.79;99675.94;5052901;28;20033;-67
2023/02/27 07:57:47;;;;;;;7.47;4.80;;;;;;;0.01;55.39;99711.81;5053411;28;20363;-65
2023/02/27 08:00:13;;;;;;;7.93;5.13;;;;;;;-0.18;55.55;99709.88;5052065;28;20025;-65
2023/02/27 08:02:39;;;;;;;9.07;4.85;;;;;;;-0.30;56.05;99711.19;5040876;28;20433;-67
2023/02/27 08:05:05;;;;;;;8.07;4.95;;;;;;;-0.41;55.97;99713.38;5035112;28;20052;-68
2023/02/27 08:07:30;;;;;;;7.30;3.92;;;;;;;-0.28;56.33;99726.94;5035261;28;20356;-65
2023/02/27 08:09:56;;;;;;;8.77;4.85;;;;;;;-0.12;55.85;99737.72;5040491;28;20028;-67
2023/02/27 08:12:22;;;;;;;7.07;4.90;;;;;;;0.02;55.32;99742.47;5053101;28;20107;-67
2023/02/27 08:14:47;;;;;;;6.05;4.30;;;;;;;0.07;55.26;99738.75;5046170;28;20026;-66
2023/02/27 08:17:13;;;;;;;6.20;4.68;;;;;;;0.17;55.05;99738.38;5033831;28;20155;-65
2023/02/27 08:19:39;;;;;;;8.57;4.63;;;;;;;0.22;54.73;99745.19;5049239;28;20043;-64
2023/02/27 08:22:05;;;;;;;9.98;4.38;;;;;;;0.27;54.45;99750.28;5052818;28;20044;-66
2023/02/27 08:24:30;;;;;;;7.43;4.47;;;;;;;0.31;54.28;99748.38;5051746;28;20033;-63
2023/02/27 08:26:56;;;;;;;6.25;4.30;;;;;;;0.18;54.93;99740.09;5051921;28;20037;-65
2023/02/27 08:29:22;;;;;;;7.35;4.53;;;;;;;-0.31;54.78;99683.16;5052613;28;20083;-65
2023/02/27 08:31:47;;;;;;;8.32;4.70;;;;;;;0.20;54.90;99759.31;5049851;28;20110;-67
2023/02/27 08:34:13;;;;;;;8.05;4.78;;;;;;;0.28;54.41;99765.16;5032587;28;20116;-66
2023/02/27 08:36:39;;;;;;;7.00;4.50;;;;;;;0.25;54.12;99765.28;5032221;28;20158;-65
2023/02/27 08:39:06;;;;;;;7.65;4.55;;;;;;;0.03;54.10;99741.56;5033220;28;20041;-65
2023/02/27 08:41:32;;;;;;;6.53;4.72;;;;;;;0.23;54.34;99769.72;5032570;28;20041;-64
2023/02/27 08:43:58;;;;;;;7.20;4.40;;;;;;;0.23;54.84;99769.72;5031150;28;20499;-65
2023/02/27 08:46:23;;;;;;;5.80;4.15;;;;;;;0.32;54.57;99769.41;5031516;28;20039;-66
2023/02/27 08:48:49;;;;;;;6.30;3.95;;;;;;;0.39;54.14;99767.38;5048994;28;20025;-66
2023/02/27 08:51:14;;;;;;;6.15;4.32;;;;;;;0.52;53.87;99773.03;5052401;28;20047;-65
2023/02/27 08:53:40;;;;;;;7.25;4.63;;;;;;;0.65;53.90;99774.22;5052474;28;20033;-64
2023/02/27 08:56:05;;;;;;;8.27;4.20;;;;;;;0.76;53.62;99781.69;5052305;28;20021;-68
2023/02/27 08:58:31;;;;;;;7.80;4.38;;;;;;;0.84;52.96;99773.47;5052326;28;20029;-66
2023/02/27 09:00:56;;;;;;;5.95;4.15;;;;;;;0.81;52.24;99771.81;5052228;28;20440;-67
2023/02/27 09:03:27;;;;;;;5.97;4.28;;;;;;;0.77;53.06;99779.94;5040252;28;20438;-65
2023/02/27 09:05:53;;;;;;;7.78;4.43;;;;;;;0.56;53.04;99764.06;5031062;28;20423;-65
2023/02/27 09:08:19;;;;;;;6.13;4.45;;;;;;;0.71;52.72;99794.22;5032090;28;20079;-64
2023/02/27 09:10:44;;;;;;;7.15;4.63;;;;;;;0.54;52.55;99802.78;5032278;28;20060;-64
2023/02/27 09:13:10;;;;;;;6.50;3.80;;;;;;;0.55;53.40;99792.19;5031650;28;20364;-64
2023/02/27 09:15:36;;;;;;;6.03;4.05;;;;;;;0.47;53.26;99806.56;5032227;28;20375;-65
2023/02/27 09:18:05;;;;;;;7.38;4.13;;;;;;;0.45;53.26;99818.94;5031508;28;20488;-65
2023/02/27 09:20:31;;;;;;;6.35;4.40;;;;;;;0.25;53.34;99771.41;5031100;28;20034;-65
2023/02/27 09:22:58;;;;;;;8.38;4.65;;;;;;;0.50;53.56;99809.09;5031414;28;20891;-65
2023/02/27 09:25:24;;;;;;;8.02;4.95;;;;;;;0.51;53.27;99826.63;5030967;28;20045;-66
2023/02/27 09:27:50;;;;;;;8.82;4.45;;;;;;;0.48;53.04;99837.25;5031684;28;20466;-65
2023/02/27 09:30:15;;;;;;;8.93;5.03;;;;;;;0.47;53.41;99832.91;5048826;28;20108;-64
2023/02/27 09:32:41;;;;;;;7.93;5.32;;;;;;;0.38;53.60;99845.53;5047338;28;20029;-66
2023/02/27 09:35:08;;;;;;;6.20;4.15;;;;;;;0.29;53.11;99830.09;5039806;28;20040;-67
2023/02/27 09:37:34;;;;;;;8.18;4.72;;;;;;;0.30;53.01;99847.59;5030828;28;20080;-65
2023/02/27 09:39:59;;;;;;;7.43;4.43;;;;;;;0.13;53.37;99849.09;5050137;28;20599;-63
2023/02/27 09:42:34;;;;;;;6.65;4.07;;;;;;;0.14;53.45;99853.44;5051658;28;20108;-63
2023/02/27 09:45:06;;;;;;;9.30;4.53;;;;;;;0.22;53.41;99860.19;5049070;28;20052;-64
2023/02/27 09:47:49;;;;;;;6.00;3.90;;;;;;;0.20;53.17;99857.63;5039646;28;20485;-63
2023/02/27 09:50:24;;;;;;;8.88;4.22;;;;;;;0.24;53.30;99851.31;5027223;28;20103;-65
2023/02/27 09:52:49;;;;;;;10.15;4.35;;;;;;;0.30;53.12;99850.25;5027726;28;20412;-64
2023/02/27 09:55:20;;;;;;;7.50;4.55;;;;;;;0.42;52.57;99852.38;5056778;28;20063;-64
2023/02/27 09:57:53;;;;;;;7.50;4.32;;;;;;;0.33;52.96;99855.38;5055105;28;20047;-64
2023/02/27 10:00:29;;;;;;;7.10;4.35;;;;;;;0.24;52.67;99853.06;5054527;28;20041;-66
2023/02/27 10:03:01;;;;;;;7.43;4.80;;;;;;;0.24;52.90;99855.72;5051582;28;20045;-63
2023/02/27 10:05:31;;;;;;;6.57;4.30;;;;;;;0.29;52.19;99832.72;5035206;28;20033;-64
2023/02/27 10:08:15;;;;;;;6.32;4.20;;;;;;;0.60;52.58;99855.25;5035099;28;20021;-63
2023/02/27 10:11:02;;;;;;;8.10;4.63;;;;;;;0.81;51.90;99852.69;5035191;28;20040;-64
2023/02/27 10:13:43;;;;;;;6.45;4.30;;;;;;;0.82;51.70;99851.75;5035480;28;20248;-65
2023/02/27 10:16:16;;;;;;;6.22;4.05;;;;;;;0.79;51.22;99865.06;5045356;28;20082;-66
2023/02/27 10:18:58;;;;;;;6.75;4.47;;;;;;;0.59;52.22;99832.44;5033477;28;20038;-65
2023/02/27 10:21:41;;;;;;;5.90;4.20;;;;;;;0.82;51.62;99875.47;5035170;28;20036;-65
2023/02/27 10:24:22;;;;;;;7.35;4.07;;;;;;;0.94;51.98;99874.13;5035633;28;20079;-64
2023/02/27 10:26:51;;;;;;;5.65;3.78;;;;;;;1.22;50.70;99879.16;5037202;28;20038;-65
2023/02/27 10:29:31;;;;;;;6.30;3.90;;;;;;;1.84;50.31;99883.63;5041928;28;20029;-65
2023/02/27 10:32:04;;;;;;;6.82;3.65;;;;;;;2.21;48.29;99863.50;5038711;28;20029;-64
2023/02/27 10:34:31;;;;;;;5.82;3.90;;;;;;;2.29;47.47;99884.28;5037360;28;20767;-60
2023/02/27 10:37:04;;;;;;;6.47;4.22;;;;;;;2.26;48.00;99844.78;5034749;28;20132;-65
2023/02/27 10:39:38;;;;;;;8.65;4.00;;;;;;;2.42;47.38;99866.94;5041860;28;20037;-66
2023/02/27 10:42:05;;;;;;;14.50;4.20;;;;;;;2.33;47.44;99875.28;5043269;28;20037;-66
2023/02/27 10:44:32;;;;;;;6.40;4.15;;;;;;;2.08;47.57;99884.31;5034020;28;20045;-65
2023/02/27 10:46:57;;;;;;;5.45;4.22;;;;;;;1.78;48.78;99891.78;5016756;28;20022;-69
2023/02/27 10:49:23;;;;;;;7.40;4.55;;;;;;;1.60;49.12;99883.75;5034030;28;20032;-66
2023/02/27 10:52:03;;;;;;;8.10;3.92;;;;;;;1.66;50.30;99895.81;5034710;28;20038;-64
2023/02/27 10:54:29;;;;;;;7.18;4.25;;;;;;;1.57;49.77;99908.50;5033761;28;20037;-65
2023/02/27 10:56:58;;;;;;;9.38;3.72;;;;;;;1.57;49.29;99905.00;5034286;28;20044;-67
2023/02/27 10:59:39;;;;;;;8.50;4.20;;;;;;;1.38;50.02;99916.31;5034843;28;20040;-65
2023/02/27 11:02:16;;;;;;;7.47;4.13;;;;;;;1.38;51.40;99920.72;5033077;28;20459;-64
2023/02/27 11:04:52;;;;;;;6.88;4.50;;;;;;;1.32;51.81;99905.16;5033409;28;20045;-65
2023/02/27 11:07:27;;;;;;;5.75;4.07;;;;;;;1.60;52.24;99933.91;5034549;28;20064;-69
2023/02/27 11:10:16;;;;;;;8.85;4.00;;;;;;;1.86;51.04;99926.66;5034006;28;20463;-65
2023/02/27 11:12:57;;;;;;;6.57;3.80;;;;;;;1.99;50.93;99927.00;5032767;28;20128;-65
2023/02/27 11:15:25;;;;;;;6.00;3.83;;;;;;;1.92;50.31;99930.78;5047391;28;20359;-65
2023/02/27 11:17:52;;;;;;;9.63;4.25;;;;;;;1.71;50.93;99934.28;5046297;28;20036;-63
2023/02/27 11:20:32;;;;;;;9.00;4.65;;;;;;;1.65;52.15;99934.56;5036196;28;20030;-67
2023/02/27 11:23:04;;;;;;;7.55;4.53;;;;;;;1.32;52.43;99942.09;5032759;28;20421;-66
2023/02/27 11:25:30;;;;;;;8.07;5.00;;;;;;;1.10;54.10;99949.09;5034092;28;20033;-67
2023/02/27 11:28:31;;;;;;;10.15;5.22;;;;;;;1.15;54.86;99946.25;5034321;28;20022;-66
2023/02/27 11:31:02;;;;;;;9.68;4.72;;;;;;;0.88;54.97;99950.84;5043145;28;20061;-66
2023/02/27 11:33:30;;;;;;;9.50;4.82;;;;;;;0.67;55.37;99950.72;5032080;28;20397;-68
2023/02/27 11:35:57;;;;;;;9.90;4.97;;;;;;;0.55;55.64;99946.78;5033707;28;20330;-66
2023/02/27 11:38:26;;;;;;;6.45;4.32;;;;;;;0.35;55.59;99951.00;5033081;28;20112;-66
2023/02/27 11:40:58;;;;;;;8.00;4.53;;;;;;;0.36;56.16;99957.13;5024638;28;20091;-62
2023/02/27 11:43:32;;;;;;;10.25;5.03;;;;;;;0.24;56.80;99955.78;5036067;28;20094;-63
2023/02/27 11:46:00;;;;;;;8.02;4.63;;;;;;;0.05;56.69;99945.94;5053761;28;20096;-64
2023/02/27 11:48:30;;;;;;;6.20;4.57;;;;;;;0.14;56.46;99964.03;5049463;28;20406;-65
2023/02/27 11:51:29;;;;;;;6.43;3.78;;;;;;;0.27;56.00;99963.59;5041517;28;20381;-66
2023/02/27 11:54:11;;;;;;;5.75;3.53;;;;;;;0.05;55.99;99966.97;5052144;28;20048;-63
2023/02/27 11:56:43;;;;;;;5.28;3.70;;;;;;;0.05;55.05;99964.34;5052793;28;20039;-65